Time;durP1;ratioP1;P1;durP2;ratioP2;P2;SDS_P1;SDS_P2;PMS_P1;PMS_P2;Temp;Humidity;BMP_temperature;BMP_pressure;BME280_temperature;BME280_humidity;BME280_pressure;Samples;Min_cycle;Max_cycle;Signal;HPM_P1;HPM_P2
2022/03/30 00:01:08;;;;;;;;;;;;;;;;;;;;;
2022/03/30 00:03:46;;;;;;;;;;;;;;;;;;;;;
2022/03/30 00:06:25;;;;;;;;;;;;;;;;;;;;;
2022/03/30 00:09:01;;;;;;;;;;;;;;;;;;;;;
2022/03/30 00:11:55;;;;;;;;;;;;;;;;;;;;;
2022/03/30 00:14:38;;;;;;;;;38.75;31.75;;;;;14.36;60.21;100167.47;6259324;22;71853;-84
2022/03/30 00:17:22;;;;;;;;;;;;;;;;;;;;;
2022/03/30 00:24:19;;;;;;;;;;;;;;;;;;;;;
2022/03/30 00:27:27;;;;;;;;;;;;;;;;;;;;;
2022/03/30 00:30:35;;;;;;;;;;;;;;;;;;;;;
2022/03/30 00:33:51;;;;;;;;;;;;;;;;;;;;;
2022/03/30 00:36:45;;;;;;;;;;;;;;;;;;;;;
2022/03/30 00:39:31;;;;;;;;;46.50;37.50;;;;;14.22;60.32;100159.03;6186742;23;71463;-85
2022/03/30 00:42:05;;;;;;;;;48.00;39.50;;;;;14.28;60.73;100165.03;6187465;23;45442;-85
2022/03/30 00:48:43;;;;;;;;;;;;;;;;;;;;;
2022/03/30 00:54:18;;;;;;;;;43.25;34.50;;;;;14.11;60.67;100135.50;6240093;22;45563;-86
2022/03/30 00:57:27;;;;;;;;;;;;;;;;;;;;;
2022/03/30 01:00:28;;;;;;;;;;;;;;;;;;;;;
2022/03/30 01:03:04;;;;;;;;;60.00;46.50;;;;;14.14;60.35;100122.22;6248915;22;72421;-85
2022/03/30 01:05:49;;;;;;;;;;;;;;;;;;;;;
2022/03/30 01:08:30;;;;;;;;;55.00;45.00;;;;;14.24;60.56;100130.75;6250056;22;71463;-86
2022/03/30 01:11:09;;;;;;;;;59.00;45.75;;;;;14.19;60.15;100116.75;6251375;22;45649;-84
2022/03/30 01:14:01;;;;;;;;;56.75;47.50;;;;;14.13;60.43;100100.13;6249270;22;45339;-86
2022/03/30 01:16:39;;;;;;;;;;;;;;;;;;;;;
2022/03/30 01:19:20;;;;;;;;;62.50;49.25;;;;;14.13;60.31;100104.56;6245997;22;71881;-86
2022/03/30 01:21:51;;;;;;;;;58.75;46.25;;;;;14.07;60.62;100086.22;6250683;22;46187;-86
2022/03/30 01:24:31;;;;;;;;;63.25;47.25;;;;;14.10;60.76;100092.28;6249264;22;45260;-85
2022/03/30 01:27:35;;;;;;;;;63.50;49.50;;;;;14.18;60.80;100102.66;6250324;22;45398;-85
2022/03/30 01:33:33;;;;;;;;;;;;;;;;;;;;;
2022/03/30 01:36:25;;;;;;;;;;;;;;;;;;;;;
2022/03/30 01:39:18;;;;;;;;;;;;;;;;;;;;;
2022/03/30 01:45:27;;;;;;;;;57.75;45.50;;;;;14.15;60.79;100083.38;6208042;22;45514;-84
2022/03/30 01:48:26;;;;;;;;;;;;;;;;;;;;;
2022/03/30 01:53:59;;;;;;;;;;;;;;;;;;;;;
2022/03/30 01:56:28;;;;;;;;;58.25;45.75;;;;;14.02;60.90;100066.97;6250569;22;73986;-85
2022/03/30 02:02:13;;;;;;;;;;;;;;;;;;;;;
2022/03/30 02:04:44;;;;;;;;;56.00;43.50;;;;;14.02;60.97;100069.59;6250443;22;72679;-85
2022/03/30 02:08:07;;;;;;;;;;;;;;;;;;;;;
2022/03/30 02:11:12;;;;;;;;;;;;;;;;;;;;;
2022/03/30 02:13:58;;;;;;;;;;;;;;;;;;;;;
2022/03/30 02:16:34;;;;;;;;;;;;;;;;;;;;;
2022/03/30 02:19:00;;;;;;;;;57.25;46.75;;;;;13.74;61.74;100038.66;6251932;22;74108;-85
2022/03/30 02:21:29;;;;;;;;;59.25;46.50;;;;;13.81;61.38;100053.41;6277383;22;45256;-86
2022/03/30 02:23:54;;;;;;;;;57.50;45.25;;;;;13.80;61.25;100046.41;6253485;22;45116;-86
2022/03/30 02:26:30;;;;;;;;;;;;;;;;;;;;;
2022/03/30 02:28:56;;;;;;;;;62.50;46.25;;;;;13.79;61.34;100046.44;6253254;22;74148;-86
2022/03/30 02:31:23;;;;;;;;;62.25;46.50;;;;;13.82;61.33;100049.88;6250547;22;45446;-86
2022/03/30 02:33:52;;;;;;;;;64.00;47.75;;;;;13.81;61.42;100048.13;6250994;22;45289;-87
2022/03/30 02:36:20;;;;;;;;;57.50;46.00;;;;;13.82;61.52;100046.34;6250657;22;45126;-86
2022/03/30 02:38:47;;;;;;;;;69.25;52.00;;;;;13.76;61.17;100036.81;6250277;22;47335;-87
2022/03/30 02:41:12;;;;;;;;;60.50;47.75;;;;;13.74;61.69;100028.06;6275888;22;45353;-87
2022/03/30 02:43:41;;;;;;;;;59.50;47.50;;;;;13.80;61.62;100037.59;6275996;22;45442;-86
2022/03/30 02:46:07;;;;;;;;;61.50;47.50;;;;;13.79;61.49;100036.75;6251261;22;45430;-85
2022/03/30 02:48:43;;;;;;;;;;;;;;;;;;;;;
2022/03/30 02:51:30;;;;;;;;;;;;;;;;;;;;;
2022/03/30 02:54:11;;;;;;;;;;;;;;;;;;;;;
2022/03/30 02:56:50;;;;;;;;;63.50;49.25;;;;;13.71;61.72;100025.47;6250458;22;72900;-87
2022/03/30 03:00:01;;;;;;;;;58.25;45.75;;;;;13.70;62.23;100023.75;6249508;22;46814;-86
2022/03/30 03:03:41;;;;;;;;;;;;;;;;;;;;;
2022/03/30 03:06:24;;;;;;;;;63.50;49.00;;;;;13.49;62.71;100008.50;6244568;22;45147;-86
2022/03/30 03:09:06;;;;;;;;;56.75;45.00;;;;;13.47;62.86;100019.09;6235941;22;45191;-86
2022/03/30 03:11:46;;;;;;;;;60.25;46.50;;;;;13.48;63.03;100018.22;6249956;22;46869;-86
2022/03/30 03:14:36;;;;;;;;;;;;;;;;;;;;;
2022/03/30 03:17:15;;;;;;;;;;;;;;;;;;;;;
2022/03/30 03:20:11;;;;;;;;;53.75;43.50;;;;;13.55;63.48;100026.81;6247158;22;71859;-85
2022/03/30 03:22:58;;;;;;;;;;;;;;;;;;;;;
2022/03/30 03:25:27;;;;;;;;;60.25;48.75;;;;;13.55;63.47;100018.88;6253962;22;73430;-87
2022/03/30 03:28:04;;;;;;;;;60.50;48.25;;;;;13.55;63.12;100022.44;6281197;22;45122;-86
2022/03/30 03:30:34;;;;;;;;;56.50;45.75;;;;;13.47;63.18;100016.44;6256288;22;45193;-86
2022/03/30 03:33:02;;;;;;;;;58.50;45.00;;;;;13.51;63.28;100009.31;6252029;22;46240;-86
2022/03/30 03:35:59;;;;;;;;;60.75;50.25;;;;;13.52;63.23;100013.69;6252503;22;45247;-86
2022/03/30 03:38:36;;;;;;;;;;;;;;;;;;;;;
2022/03/30 03:41:12;;;;;;;;;;;;;;;;;;;;;
2022/03/30 03:43:47;;;;;;;;;59.50;48.25;;;;;13.54;63.09;100006.59;6250595;22;74642;-86
2022/03/30 03:46:13;;;;;;;;;61.25;49.00;;;;;13.48;63.23;99994.41;6249966;22;45272;-86
2022/03/30 03:48:39;;;;;;;;;60.25;46.00;;;;;13.43;63.32;99989.25;6276497;22;45330;-86
2022/03/30 03:51:04;;;;;;;;;58.25;44.75;;;;;13.42;63.35;99992.81;6276579;22;45383;-86
2022/03/30 03:53:40;;;;;;;;;59.50;48.50;;;;;13.46;63.49;99997.09;6249950;22;45466;-86
2022/03/30 03:56:09;;;;;;;;;60.00;50.00;;;;;13.49;63.52;100004.06;6277236;22;45871;-86
2022/03/30 03:58:37;;;;;;;;;62.25;48.75;;;;;13.48;63.69;99993.56;6251568;22;45253;-85
2022/03/30 04:01:06;;;;;;;;;63.00;48.50;;;;;13.49;63.55;99997.91;6251216;22;45462;-86
2022/03/30 04:03:34;;;;;;;;;61.75;48.75;;;;;13.51;63.43;100004.91;6251406;22;46666;-87
2022/03/30 04:06:08;;;;;;;;;60.00;47.25;;;;;13.54;63.51;100002.16;6251713;22;45546;-86
2022/03/30 04:08:47;;;;;;;;;;;;;;;;;;;;;
2022/03/30 04:11:13;;;;;;;;;59.50;47.50;;;;;13.57;63.55;100003.84;6252489;22;72804;-86
2022/03/30 04:14:21;;;;;;;;;;;;;;;;;;;;;
2022/03/30 04:16:38;;;;;;;;;63.25;49.75;;;;;13.62;63.56;100000.16;6250237;22;45280;-86
2022/03/30 04:19:04;;;;;;;;;61.00;48.75;;;;;13.53;63.24;99981.06;6252568;22;45268;-86
2022/03/30 04:21:40;;;;;;;;;;;;;;;;;;;;;
2022/03/30 04:24:06;;;;;;;;;68.75;51.50;;;;;13.63;63.06;99988.69;6250976;22;75477;-86
2022/03/30 04:26:41;;;;;;;;;62.75;50.25;;;;;13.55;63.05;99968.63;6276770;22;45453;-86
2022/03/30 04:29:10;;;;;;;;;61.00;48.75;;;;;13.60;63.22;99982.59;6252732;22;45322;-86
2022/03/30 04:31:38;;;;;;;;;59.25;48.25;;;;;13.57;63.16;99970.34;6277236;22;45492;-88
2022/03/30 04:34:07;;;;;;;;;57.50;44.25;;;;;13.63;63.15;99978.13;6251773;22;46852;-86
2022/03/30 04:36:35;;;;;;;;;62.25;49.00;;;;;13.51;63.43;99957.28;6253037;22;45358;-86
2022/03/30 04:39:03;;;;;;;;;57.25;48.00;;;;;13.62;63.47;99979.00;6279261;22;44732;-86
2022/03/30 04:41:29;;;;;;;;;63.00;48.75;;;;;13.55;63.21;99958.97;6257095;22;45097;-86
2022/03/30 04:43:57;;;;;;;;;61.00;49.25;;;;;13.55;63.21;99961.59;6282155;22;46857;-86
2022/03/30 04:46:30;;;;;;;;;65.00;51.25;;;;;13.63;63.37;99977.22;6255286;22;45291;-86
2022/03/30 04:48:56;;;;;;;;;62.25;49.00;;;;;13.55;63.27;99956.31;6254916;22;44693;-86
2022/03/30 04:51:24;;;;;;;;;59.50;47.75;;;;;13.64;63.24;99973.69;6253965;22;45618;-88
2022/03/30 04:53:50;;;;;;;;;61.25;50.00;;;;;13.58;63.27;99958.88;6253905;22;47149;-86
2022/03/30 04:56:16;;;;;;;;;63.75;51.75;;;;;13.62;63.21;99947.28;6253859;22;45321;-84
2022/03/30 04:58:46;;;;;;;;;64.00;50.75;;;;;13.70;63.38;99965.56;6253162;22;45335;-86
2022/03/30 05:01:14;;;;;;;;;66.25;50.00;;;;;13.70;63.40;99965.56;6279864;22;45455;-86
2022/03/30 05:03:39;;;;;;;;;60.75;49.25;;;;;13.69;63.30;99961.19;6253378;22;45416;-86
2022/03/30 05:06:18;;;;;;;;;;;;;;;;;;;;;
2022/03/30 05:08:46;;;;;;;;;66.00;52.25;;;;;13.59;63.79;99942.06;6254300;22;67980;-86
2022/03/30 05:14:25;;;;;;;;;63.25;49.00;;;;;13.61;63.62;99939.41;6239068;22;45906;-87
2022/03/30 05:16:57;;;;;;;;;67.00;52.25;;;;;13.72;63.66;99961.09;6250441;22;45235;-86
2022/03/30 05:19:25;;;;;;;;;68.00;52.25;;;;;13.71;63.74;99953.19;6253870;22;45142;-86
2022/03/30 05:21:56;;;;;;;;;65.00;51.00;;;;;13.61;63.53;99937.63;6250953;22;45221;-85
2022/03/30 05:24:27;;;;;;;;;66.50;52.00;;;;;13.61;64.02;99956.13;6251575;22;47942;-86
2022/03/30 05:31:06;;;;;;;;;65.75;49.75;;;;;13.62;64.35;99960.50;6205496;22;45475;-84
2022/03/30 05:33:46;;;;;;;;;;;;;;;;;;;;;
2022/03/30 05:46:40;;;;;;;;;;;;;;;;;;;;;
2022/03/30 05:52:25;;;;;;;;;62.75;50.00;;;;;13.60;64.36;99957.03;6183022;23;45380;-85
2022/03/30 05:54:54;;;;;;;;;62.75;50.75;;;;;13.64;64.78;99968.41;6184423;23;45371;-85
2022/03/30 05:58:10;;;;;;;;;;;;;;;;;;;;;
2022/03/30 06:01:21;;;;;;;;;67.00;51.75;;;;;13.54;65.23;99959.00;6246898;22;75263;-88
2022/03/30 06:04:00;;;;;;;;;;;;;;;;;;;;;
2022/03/30 06:06:29;;;;;;;;;68.75;52.75;;;;;13.56;65.20;99978.34;6240257;22;68468;-86
2022/03/30 06:08:55;;;;;;;;;65.75;50.00;;;;;13.52;65.40;99979.31;6247998;22;45296;-82
2022/03/30 06:11:20;;;;;;;;;63.75;50.25;;;;;13.43;65.70;99972.50;6247528;22;45284;-83
2022/03/30 06:13:46;;;;;;;;;66.00;52.00;;;;;13.35;65.81;99970.06;6247168;22;45349;-86
2022/03/30 06:16:40;;;;;;;;;64.00;50.50;;;;;13.32;65.97;99970.16;6248162;22;45291;-85
2022/03/30 06:19:08;;;;;;;;;65.50;53.00;;;;;13.33;66.11;99974.53;6234716;22;45475;-85
2022/03/30 06:21:33;;;;;;;;;68.50;53.00;;;;;13.36;65.81;99981.50;6245228;22;47866;-82
2022/03/30 06:24:21;;;;;;;;;;;;;;;;;;;;;
2022/03/30 06:26:47;;;;;;;;;66.50;51.00;;;;;13.26;66.50;99978.28;6246103;22;70835;-84
2022/03/30 06:29:13;;;;;;;;;68.50;53.00;;;;;13.36;66.36;99989.44;6246013;22;45581;-83
2022/03/30 06:31:54;;;;;;;;;68.00;54.00;;;;;13.31;66.24;99967.56;6247732;22;45391;-85
2022/03/30 06:42:26;;;;;;;;;69.75;53.75;;;;;13.28;65.81;99986.16;5951463;23;45310;-87
2022/03/30 06:48:39;;;;;;;;;70.50;56.50;;;;;13.13;66.38;99972.41;5891229;24;45451;-87
2022/03/30 06:54:37;;;;;;;;;64.75;51.50;;;;;13.18;66.46;99985.50;5867195;24;45205;-84
2022/03/30 07:01:16;;;;;;;;;71.00;53.75;;;;;13.20;66.66;99997.78;5843442;24;45514;-84
2022/03/30 07:14:53;;;;;;;;;67.75;54.00;;;;;13.14;66.82;99986.47;5942639;23;45392;-86
2022/03/30 07:17:30;;;;;;;;;64.50;53.25;;;;;13.21;66.75;99998.63;5872594;24;45366;-85
2022/03/30 07:26:40;;;;;;;;;71.00;54.25;;;;;13.11;67.06;99984.78;5922235;24;45612;-84
2022/03/30 07:29:06;;;;;;;;;72.75;56.25;;;;;13.12;67.27;99983.88;6040547;23;45305;-84
2022/03/30 07:32:30;;;;;;;;;;;;;;;;;;;;;
2022/03/30 07:42:58;;;;;;;;;;;;;;;;;;;;;
2022/03/30 07:45:47;;;;;;;;;68.00;51.50;;;;;13.18;67.64;99981.09;6094431;23;73485;-82
2022/03/30 07:52:22;;;;;;;;;68.75;54.50;;;;;13.23;67.31;99980.94;6009223;23;45410;-81
2022/03/30 08:07:50;;;;;;;;;;;;;;;;;;;;;
2022/03/30 08:10:42;;;;;;;;;71.25;54.50;;;;;13.58;67.84;99987.97;6277725;22;72818;-83
2022/03/30 08:13:30;;;;;;;;;72.75;55.25;;;;;13.60;67.97;99985.25;6272103;22;46146;-82
2022/03/30 08:15:58;;;;;;;;;65.00;50.25;;;;;13.60;68.08;99972.03;6277352;22;45295;-82
2022/03/30 08:18:39;;;;;;;;;68.00;53.75;;;;;13.62;67.94;99973.72;6279676;22;45125;-83
2022/03/30 08:24:45;;;;;;;;;;;;;;;;;;;;;
2022/03/30 08:35:06;;;;;;;;;67.25;53.25;;;;;13.83;67.67;99987.25;6146016;23;45393;-83
2022/03/30 08:38:07;;;;;;;;;67.00;51.75;;;;;13.73;67.12;99965.47;6033521;23;47346;-83
2022/03/30 08:40:34;;;;;;;;;70.25;52.25;;;;;13.75;67.21;99982.19;6035385;23;45686;-80
2022/03/30 08:43:00;;;;;;;;;72.00;54.75;;;;;13.74;67.22;99966.34;6099705;23;45368;-80
2022/03/30 08:45:59;;;;;;;;;68.00;54.75;;;;;13.83;67.38;99980.16;6128402;23;45354;-82
2022/03/30 08:48:55;;;;;;;;;;;;;;;;;;;;;
2022/03/30 09:01:14;;;;;;;;;68.00;52.00;;;;;14.10;67.02;99982.91;6124948;23;45474;-85
2022/03/30 09:07:44;;;;;;;;;72.00;56.25;;;;;14.18;66.31;99980.03;6031130;23;45500;-83
2022/03/30 09:17:12;;;;;;;;;71.00;54.00;;;;;14.26;66.29;99970.94;5923045;24;45390;-79
2022/03/30 10:31:31;;;;;;;;;65.25;51.25;;;;;16.03;60.36;99965.69;6270175;22;45356;-83
2022/03/30 10:34:22;;;;;;;;;63.25;50.75;;;;;16.22;60.23;99962.31;6275874;22;45403;-84
2022/03/30 12:02:22;;;;;;;;;54.75;44.25;;;;;18.32;48.93;99854.53;6238517;22;47003;-84
2022/03/30 12:12:24;;;;;;;;;;;;;;;;;;;;;
2022/03/30 12:22:18;;;;;;;;;;;;;;;;;;;;;
2022/03/30 16:38:38;;;;;;;;;;;;;;;;;;;;;
2022/03/30 16:54:16;;;;;;;;;66.00;52.00;;;;;14.76;55.19;99676.16;6277320;22;45367;-90
2022/03/30 17:06:18;;;;;;;;;65.00;49.50;;;;;14.65;54.88;99683.59;6271847;22;45677;-89
